Time;durP1;ratioP1;P1;durP2;ratioP2;P2;SDS_P1;SDS_P2;PMS_P1;PMS_P2;Temp;Humidity;BMP_temperature;BMP_pressure;BME280_temperature;BME280_humidity;BME280_pressure;Samples;Min_cycle;Max_cycle;Signal;HPM_P1;HPM_P2
2023/12/12 00:02:21;;;;;;;10.50;2.60;;;10.10;71.60;;;11.81;54.18;97090.91;5031280;28;20515;-50
2023/12/12 00:04:49;;;;;;;5.20;2.13;;;10.10;71.30;;;11.79;53.87;97085.75;5031935;28;20038;-51
2023/12/12 00:07:16;;;;;;;10.67;2.87;;;10.10;71.90;;;11.78;53.73;97086.75;5031776;28;20049;-49
2023/12/12 00:09:44;;;;;;;20.50;8.00;;;10.00;71.90;;;11.77;54.04;97092.28;5031873;28;20386;-51
2023/12/12 00:12:11;;;;;;;16.33;8.73;;;10.00;72.00;;;11.74;53.78;97097.97;5031667;28;20050;-48
2023/12/12 00:14:39;;;;;;;30.17;12.67;;;9.90;72.40;;;11.70;54.16;97094.81;5031832;28;20050;-50
2023/12/12 00:17:07;;;;;;;58.73;26.23;;;9.90;72.60;;;11.67;53.87;97089.88;5031536;28;20405;-50
2023/12/12 00:19:34;;;;;;;32.30;13.20;;;9.80;72.70;;;11.66;54.33;97088.19;5031556;28;20516;-50
2023/12/12 00:22:02;;;;;;;22.60;9.50;;;9.80;73.20;;;11.65;54.01;97083.03;5031576;28;20038;-48
2023/12/12 00:24:30;;;;;;;18.20;7.90;;;9.80;73.10;;;11.64;54.01;97084.91;5031357;28;20049;-50
2023/12/12 00:26:57;;;;;;;16.23;5.77;;;9.80;73.30;;;11.65;54.22;97093.72;5031256;28;20046;-49
2023/12/12 00:29:25;;;;;;;15.37;5.87;;;9.80;72.80;;;11.61;54.13;97096.75;5031481;28;20045;-53
2023/12/12 00:31:52;;;;;;;8.83;3.63;;;9.80;72.90;;;11.59;54.17;97105.94;5031059;28;20048;-48
2023/12/12 00:34:20;;;;;;;11.37;3.07;;;9.70;73.10;;;11.57;53.98;97111.47;5029693;28;20045;-48
2023/12/12 00:36:48;;;;;;;6.73;2.30;;;9.70;72.80;;;11.55;54.26;97101.97;5031165;28;20038;-48
2023/12/12 00:39:16;;;;;;;7.10;2.10;;;9.70;72.90;;;11.52;54.29;97094.34;5030652;28;20045;-48
2023/12/12 00:41:43;;;;;;;8.57;2.10;;;9.60;73.10;;;11.52;53.99;97095.16;5031109;28;20042;-48
2023/12/12 00:44:12;;;;;;;7.83;2.00;;;9.60;72.90;;;11.52;53.91;97097.84;5031138;28;20048;-50
2023/12/12 00:46:39;;;;;;;8.10;2.30;;;9.70;72.70;;;11.48;53.81;97093.06;5031123;28;20042;-50
2023/12/12 00:49:07;;;;;;;6.70;2.70;;;9.60;72.70;;;11.46;54.13;97103.03;5031142;28;20053;-51
2023/12/12 00:51:35;;;;;;;3.60;1.87;;;9.50;73.10;;;11.42;53.98;97103.41;5022032;28;20103;-49
2023/12/12 00:54:02;;;;;;;8.23;2.23;;;9.50;73.20;;;11.39;54.34;97100.28;5031190;28;20060;-52
2023/12/12 00:56:31;;;;;;;10.03;2.67;;;9.50;73.70;;;11.37;54.10;97095.13;5030695;28;20052;-53
2023/12/12 00:58:59;;;;;;;12.93;7.27;;;9.50;73.80;;;11.38;54.45;97104.78;5031032;28;20045;-54
2023/12/12 01:01:26;;;;;;;8.57;3.67;;;9.50;73.60;;;11.35;54.44;97106.97;5030720;28;20041;-52
2023/12/12 01:03:54;;;;;;;6.30;2.43;;;9.50;74.10;;;11.33;54.45;97098.34;5029826;28;20047;-52
2023/12/12 01:06:26;;;;;;;4.90;2.80;;;9.40;74.10;;;11.29;54.56;97099.72;5030420;28;20398;-51
2023/12/12 01:08:56;;;;;;;;;;;9.30;74.30;;;11.22;54.34;97105.75;5031581;28;20412;-52
2023/12/12 01:11:23;;;;;;;4.97;2.07;;;9.30;74.70;;;11.27;54.72;97094.56;5030895;28;19929;-49
2023/12/12 01:13:51;;;;;;;7.93;2.67;;;9.30;75.30;;;11.25;54.84;97103.75;5030860;28;20064;-53
2023/12/12 01:16:18;;;;;;;8.23;2.17;;;9.30;75.30;;;11.25;54.86;97114.41;5030644;28;20493;-49
2023/12/12 01:18:46;;;;;;;7.83;2.70;;;9.40;75.10;;;11.24;54.56;97110.88;5030948;28;20049;-53
2023/12/12 01:21:14;;;;;;;4.17;1.70;;;9.40;75.20;;;11.26;55.05;97108.03;5028343;28;20057;-53
2023/12/12 01:23:49;;;;;;;8.43;2.40;;;9.40;75.10;;;11.26;54.78;97106.19;5030806;28;20033;-50
2023/12/12 01:26:20;;;;;;;6.40;2.10;;;9.40;75.20;;;11.29;55.15;97102.38;5030481;28;20045;-53
2023/12/12 01:28:48;;;;;;;4.77;1.80;;;9.50;74.90;;;11.32;55.20;97102.00;5030948;28;20511;-53
2023/12/12 01:31:17;;;;;;;4.37;1.60;;;9.50;74.80;;;11.32;54.87;97099.34;5030663;28;20049;-53
2023/12/12 01:33:45;;;;;;;9.80;2.67;;;9.50;75.30;;;11.33;54.68;97093.00;5030804;28;20056;-52
2023/12/12 01:36:13;;;;;;;5.50;1.90;;;9.50;74.90;;;11.31;54.95;97090.50;5030462;28;20508;-53
2023/12/12 01:38:40;;;;;;;4.60;2.17;;;9.50;75.30;;;11.31;55.14;97082.53;5030535;28;20421;-50
2023/12/12 01:41:08;;;;;;;5.27;1.90;;;9.50;75.20;;;11.36;54.96;97082.81;5030608;28;20045;-50
2023/12/12 01:43:35;;;;;;;9.17;2.63;;;9.50;74.70;;;11.38;55.09;97083.47;5030556;28;20041;-51
2023/12/12 01:46:06;;;;;;;4.40;2.00;;;9.60;74.70;;;11.36;54.99;97073.97;5030435;28;20052;-53
2023/12/12 01:48:35;;;;;;;6.03;2.80;;;9.60;74.90;;;11.34;54.91;97070.66;5029267;28;20516;-52
2023/12/12 01:51:04;;;;;;;7.33;2.03;;;9.50;75.30;;;11.36;54.77;97071.31;5033750;28;20045;-51
2023/12/12 01:53:47;;;;;;;7.87;2.10;;;9.50;75.00;;;11.32;54.91;97078.88;5033190;28;20045;-50
2023/12/12 01:56:15;;;;;;;2.97;2.20;;;9.50;75.40;;;11.27;55.28;97075.91;5032887;28;20421;-51
2023/12/12 01:58:47;;;;;;;5.60;2.00;;;9.30;75.80;;;11.25;55.16;97069.09;5026521;28;20056;-51
2023/12/12 02:01:16;;;;;;;4.40;1.80;;;9.40;76.20;;;11.23;55.27;97079.94;5032832;28;20113;-52
2023/12/12 02:03:44;;;;;;;13.80;3.03;;;9.30;76.30;;;11.19;55.58;97063.47;5025170;28;20045;-51
2023/12/12 02:06:15;;;;;;;7.93;2.80;;;9.30;76.90;;;11.18;55.63;97063.66;5033813;28;20041;-53
2023/12/12 02:08:43;;;;;;;4.53;1.50;;;9.30;76.70;;;11.17;55.81;97070.81;5025089;28;20042;-52
2023/12/12 02:11:12;;;;;;;4.67;1.57;;;9.30;76.80;;;11.13;55.40;97077.50;5032805;28;20052;-53
2023/12/12 02:13:39;;;;;;;8.07;3.10;;;9.20;77.40;;;11.07;55.59;97072.91;5032781;28;20052;-51
2023/12/12 02:16:08;;;;;;;3.20;1.93;;;9.10;77.90;;;11.06;55.87;97067.75;5033431;28;20052;-49
2023/12/12 02:18:36;;;;;;;4.90;2.07;;;9.10;78.10;;;11.01;55.88;97057.59;5032626;28;20053;-54
2023/12/12 02:21:04;;;;;;;5.73;1.90;;;9.10;78.30;;;11.01;56.20;97055.78;5033091;28;20041;-50
2023/12/12 02:23:32;;;;;;;9.17;2.83;;;9.10;78.40;;;11.01;56.13;97042.47;5033932;28;20041;-52
2023/12/12 02:26:03;;;;;;;4.73;1.70;;;9.10;78.50;;;11.02;56.07;97036.13;5032399;28;20045;-52
2023/12/12 02:28:30;;;;;;;3.97;1.50;;;9.20;78.40;;;11.04;56.23;97035.94;5032717;28;20048;-50
2023/12/12 02:31:00;;;;;;;7.33;1.70;;;9.20;78.00;;;11.07;55.85;97038.28;5033771;28;20057;-52
2023/12/12 02:33:28;;;;;;;3.07;2.07;;;9.20;78.00;;;11.04;56.28;97034.13;5033773;28;20053;-48
2023/12/12 02:35:55;;;;;;;10.47;2.70;;;9.20;77.80;;;11.03;56.01;97037.78;5033355;28;20054;-53
2023/12/12 02:38:23;;;;;;;4.17;2.20;;;9.20;77.90;;;11.01;56.22;97049.63;5033910;28;20037;-53
2023/12/12 02:40:50;;;;;;;5.03;1.70;;;9.10;78.20;;;11.01;56.43;97045.16;5033436;28;20041;-51
2023/12/12 02:43:18;;;;;;;4.20;1.50;;;9.20;78.20;;;11.01;56.00;97050.47;5032557;28;20512;-51
2023/12/12 02:45:46;;;;;;;8.47;2.30;;;9.20;78.40;;;11.02;56.20;97054.78;5025301;28;20045;-50
2023/12/12 02:48:13;;;;;;;5.87;1.73;;;9.20;78.10;;;11.03;56.42;97044.94;5033392;28;20042;-51
2023/12/12 02:50:41;;;;;;;4.73;2.07;;;9.20;78.20;;;11.06;56.11;97052.59;5033295;28;20523;-52
2023/12/12 02:53:09;;;;;;;3.83;1.67;;;9.30;78.00;;;11.05;56.14;97056.28;5033167;28;20056;-53
2023/12/12 02:55:36;;;;;;;5.13;1.83;;;9.20;78.00;;;11.08;56.19;97057.75;5033192;28;20045;-51
2023/12/12 02:58:04;;;;;;;5.50;1.87;;;9.30;77.70;;;11.09;55.99;97062.91;5032584;28;20536;-49
2023/12/12 03:00:32;;;;;;;2.97;1.77;;;9.40;77.20;;;11.08;56.01;97060.41;5032388;28;20049;-51
2023/12/12 03:02:59;;;;;;;3.73;1.47;;;9.30;77.30;;;11.04;55.94;97043.94;5031534;28;20041;-50
2023/12/12 03:05:27;;;;;;;6.40;2.03;;;9.30;77.60;;;11.04;56.47;97043.94;5031799;28;20061;-52
2023/12/12 03:07:55;;;;;;;5.33;1.40;;;9.30;77.30;;;11.02;56.00;97038.78;5032574;28;20416;-52
2023/12/12 03:10:22;;;;;;;2.90;1.40;;;9.30;77.60;;;11.01;56.22;97039.81;5032845;28;20424;-53
2023/12/12 03:12:50;;;;;;;3.40;1.70;;;9.20;77.70;;;10.99;56.08;97054.28;5033271;28;20046;-53
2023/12/12 03:15:18;;;;;;;4.60;1.60;;;9.20;78.30;;;10.97;56.53;97053.66;5032912;28;20045;-50
2023/12/12 03:17:45;;;;;;;5.23;2.97;;;9.20;78.10;;;10.97;56.24;97043.84;5032302;28;20071;-52
2023/12/12 03:20:13;;;;;;;3.40;2.03;;;9.20;78.00;;;10.96;56.46;97025.38;5032736;28;20076;-52
2023/12/12 03:22:41;;;;;;;5.13;1.63;;;9.20;78.00;;;10.96;56.63;97026.19;5031755;28;20045;-53
2023/12/12 03:25:08;;;;;;;2.37;1.60;;;9.30;78.30;;;10.99;56.38;97025.00;5032771;28;20045;-49
2023/12/12 03:27:36;;;;;;;6.93;2.20;;;9.30;78.20;;;11.00;56.42;97024.00;5032221;28;20068;-50
2023/12/12 03:30:04;;;;;;;6.10;2.40;;;9.30;78.30;;;11.02;56.64;97016.66;5032429;28;20405;-51
2023/12/12 03:32:32;;;;;;;2.43;1.50;;;9.30;78.60;;;11.03;56.70;97011.16;5032363;28;20060;-51
2023/12/12 03:34:59;;;;;;;6.43;2.10;;;9.30;78.60;;;11.02;56.67;97012.16;5032457;28;20033;-49
2023/12/12 03:37:27;;;;;;;3.50;1.67;;;9.30;78.90;;;11.03;56.73;97015.63;5031937;28;20057;-50
2023/12/12 03:39:55;;;;;;;4.20;1.50;;;9.20;79.10;;;11.00;56.87;97008.03;5032324;28;20050;-51
2023/12/12 03:42:22;;;;;;;4.07;2.10;;;9.20;79.50;;;10.97;56.95;97016.34;5032112;28;20045;-53
2023/12/12 03:44:50;;;;;;;4.37;1.77;;;9.20;79.80;;;10.94;57.39;97009.56;5032225;28;20108;-53
2023/12/12 03:47:18;;;;;;;4.27;1.77;;;9.10;80.30;;;10.94;57.41;97003.41;5032089;28;20389;-52
2023/12/12 03:49:45;;;;;;;5.83;1.87;;;9.10;80.70;;;10.94;57.54;96998.09;5032037;28;20060;-50
2023/12/12 03:52:13;;;;;;;4.93;1.30;;;9.10;80.90;;;10.92;57.17;97000.94;5032099;28;20051;-52
2023/12/12 03:54:41;;;;;;;2.80;1.40;;;9.10;80.90;;;10.91;57.45;96996.59;5031767;28;20049;-54
2023/12/12 03:57:08;;;;;;;6.57;1.60;;;9.10;80.60;;;10.89;57.64;96995.13;5031774;28;20431;-52
2023/12/12 03:59:36;;;;;;;3.03;1.73;;;9.00;80.80;;;10.87;57.26;96979.31;5031699;28;20527;-51
2023/12/12 04:02:04;;;;;;;6.70;1.80;;;9.00;80.50;;;10.83;57.60;96983.34;5032179;28;20037;-52
2023/12/12 04:04:31;;;;;;;6.93;1.80;;;8.90;80.70;;;10.78;57.26;96978.56;5032096;28;20045;-52
2023/12/12 04:06:59;;;;;;;2.57;1.50;;;8.80;81.20;;;10.73;57.27;96980.13;5032074;28;20041;-53
2023/12/12 04:09:27;;;;;;;3.37;1.30;;;8.80;81.30;;;10.67;57.72;96976.34;5031875;28;20050;-51
2023/12/12 04:11:54;;;;;;;3.93;2.03;;;8.70;81.90;;;10.66;57.36;96979.16;5023684;28;20049;-53
2023/12/12 04:14:22;;;;;;;2.83;1.57;;;8.70;81.70;;;10.60;57.27;96976.22;5030884;28;20520;-50
2023/12/12 04:16:50;;;;;;;4.87;1.70;;;8.60;81.50;;;10.56;57.65;96963.44;5030507;28;20049;-51
2023/12/12 04:19:17;;;;;;;6.90;3.10;;;8.60;81.80;;;10.51;57.87;96960.50;5031407;28;20050;-51
2023/12/12 04:21:45;;;;;;;4.13;2.00;;;8.50;81.80;;;10.49;57.58;96973.97;5027382;28;20049;-50
2023/12/12 04:24:13;;;;;;;2.90;1.63;;;8.50;81.60;;;10.43;57.35;96972.03;5031674;28;20041;-49
2023/12/12 04:26:40;;;;;;;2.00;1.50;;;8.40;81.60;;;10.35;57.64;96972.91;5031210;28;20054;-51
2023/12/12 04:29:08;;;;;;;2.70;1.60;;;8.40;82.10;;;10.29;57.51;96978.06;5031649;28;20041;-50
2023/12/12 04:31:36;;;;;;;3.63;1.80;;;8.30;82.30;;;10.24;57.86;96974.09;5029726;28;20516;-51
2023/12/12 04:34:04;;;;;;;4.33;1.80;;;8.20;82.50;;;10.21;57.75;96970.94;5031317;28;20493;-49
2023/12/12 04:36:33;;;;;;;2.13;1.33;;;8.20;82.40;;;10.14;57.75;96968.16;5030932;28;20049;-51
2023/12/12 04:39:00;;;;;;;2.97;1.60;;;8.20;82.70;;;10.12;58.07;96978.16;5031408;28;20042;-53
2023/12/12 04:41:28;;;;;;;4.30;2.00;;;8.10;83.20;;;10.08;58.12;96973.34;5031184;28;20048;-49
2023/12/12 04:43:55;;;;;;;3.60;1.50;;;8.10;82.90;;;10.07;58.18;96975.19;5029792;28;20046;-52
2023/12/12 04:46:23;;;;;;;3.93;2.00;;;8.10;82.90;;;10.08;57.70;96968.88;5030935;28;20045;-49
2023/12/12 04:48:51;;;;;;;7.97;2.50;;;8.20;81.90;;;10.03;57.99;96971.22;5030918;28;20497;-53
2023/12/12 04:51:19;;;;;;;5.00;2.37;;;8.10;82.30;;;10.02;57.78;96972.22;5030893;28;20060;-49
2023/12/12 04:53:46;;;;;;;5.63;2.17;;;8.10;82.00;;;10.00;58.00;96964.44;5030906;28;20064;-52
2023/12/12 04:56:14;;;;;;;3.37;2.37;;;8.10;82.20;;;9.98;57.86;96949.63;5030938;28;20041;-52
2023/12/12 04:58:41;;;;;;;6.47;1.93;;;8.00;82.00;;;9.95;58.00;96942.84;5030795;28;20053;-53
2023/12/12 05:01:09;;;;;;;5.03;2.00;;;8.00;82.30;;;9.92;57.93;96945.84;5030884;28;20053;-51
2023/12/12 05:03:37;;;;;;;3.67;2.13;;;8.00;82.70;;;9.89;58.23;96942.69;5029771;28;20049;-50
2023/12/12 05:06:04;;;;;;;4.13;1.90;;;8.00;83.10;;;9.85;58.46;96956.34;5030518;28;20405;-52
2023/12/12 05:08:32;;;;;;;3.77;2.10;;;7.90;83.40;;;9.83;58.58;96961.00;5031136;28;20053;-52
2023/12/12 05:11:00;;;;;;;2.13;1.53;;;7.90;83.80;;;9.85;58.45;96961.66;5023936;28;20041;-49
2023/12/12 05:13:28;;;;;;;3.10;1.27;;;7.90;83.90;;;9.90;58.62;96966.44;5030733;28;20428;-52
2023/12/12 05:15:55;;;;;;;2.57;2.10;;;8.00;83.50;;;9.93;58.90;96960.78;5030465;28;20033;-51
2023/12/12 05:18:23;;;;;;;4.07;1.93;;;8.20;83.00;;;9.95;58.54;96966.78;5030916;28;20049;-50
2023/12/12 05:20:51;;;;;;;2.93;1.30;;;8.20;82.80;;;9.98;58.76;96949.63;5030510;28;20041;-53
2023/12/12 05:23:18;;;;;;;3.07;1.30;;;8.20;82.80;;;10.03;58.44;96956.09;5030465;28;20053;-51
2023/12/12 05:25:46;;;;;;;1.67;1.30;;;8.20;82.40;;;10.05;58.61;96962.06;5034279;28;20052;-51
2023/12/12 05:28:16;;;;;;;2.77;1.70;;;8.20;82.80;;;10.07;58.59;96959.22;5034893;28;20049;-53
2023/12/12 05:30:44;;;;;;;5.03;1.77;;;8.30;82.60;;;10.10;58.58;96955.38;5034465;28;20101;-51
2023/12/12 05:33:12;;;;;;;2.83;1.50;;;8.30;82.60;;;10.14;58.63;96959.34;5034717;28;20053;-51
2023/12/12 05:35:40;;;;;;;4.57;1.67;;;8.30;82.70;;;10.16;58.61;96942.22;5033106;28;20049;-50
2023/12/12 05:38:08;;;;;;;1.90;1.50;;;8.30;82.60;;;10.20;58.50;96938.19;5034430;28;20041;-53
2023/12/12 05:40:36;;;;;;;4.20;1.80;;;8.40;82.50;;;10.19;58.54;96939.19;5034443;28;20056;-53
2023/12/12 05:43:03;;;;;;;3.63;1.50;;;8.30;82.50;;;10.22;58.46;96932.72;5025225;28;20064;-51
2023/12/12 05:45:31;;;;;;;3.43;1.70;;;8.40;82.60;;;10.29;58.49;96927.50;5034539;28;20041;-52
2023/12/12 05:47:59;;;;;;;4.97;1.43;;;8.50;82.50;;;10.31;58.61;96929.00;5034449;28;20516;-50
2023/12/12 05:50:27;;;;;;;4.33;1.50;;;8.50;82.40;;;10.35;58.43;96916.19;5034181;28;20060;-53
2023/12/12 05:52:54;;;;;;;3.43;1.83;;;8.60;82.30;;;10.41;58.84;96921.63;5034216;28;20053;-51
2023/12/12 05:55:22;;;;;;;2.73;2.00;;;8.60;81.80;;;10.41;58.38;96934.09;5034421;28;20288;-50
2023/12/12 05:57:49;;;;;;;4.77;1.40;;;8.60;82.30;;;10.40;58.75;96927.13;5034061;28;20049;-51
2023/12/12 06:00:17;;;;;;;2.00;1.33;;;8.50;82.20;;;10.40;58.81;96929.78;5034070;28;20056;-53
2023/12/12 06:02:45;;;;;;;3.80;1.60;;;8.60;82.50;;;10.41;58.70;96929.63;5033942;28;20037;-53
2023/12/12 06:05:13;;;;;;;4.00;1.60;;;8.60;82.30;;;10.44;58.49;96939.88;5034080;28;20068;-51
2023/12/12 06:07:42;;;;;;;5.07;1.60;;;8.60;82.10;;;10.44;58.86;96945.22;5033734;28;20045;-52
2023/12/12 06:10:10;;;;;;;2.57;1.43;;;8.60;82.40;;;10.47;58.48;96938.72;5033461;28;20417;-53
2023/12/12 06:12:38;;;;;;;2.67;1.50;;;8.60;81.90;;;10.49;58.65;96930.53;5033790;28;20045;-54
2023/12/12 06:15:07;;;;;;;3.60;1.70;;;8.70;82.00;;;10.51;58.32;96929.38;5024747;28;20061;-53
2023/12/12 06:17:35;;;;;;;2.70;1.40;;;8.70;81.70;;;10.52;58.65;96933.69;5032537;28;20406;-52
2023/12/12 06:20:04;;;;;;;2.27;1.47;;;8.70;81.70;;;10.51;58.73;96929.38;5033646;28;20440;-53
2023/12/12 06:22:34;;;;;;;3.70;1.43;;;8.70;81.90;;;10.51;58.46;96926.72;5032745;28;20495;-52
2023/12/12 06:25:01;;;;;;;2.07;1.30;;;8.70;82.10;;;10.49;58.54;96914.56;5032384;28;20042;-52
2023/12/12 06:27:29;;;;;;;1.93;1.30;;;8.60;82.20;;;10.49;58.09;96910.09;5033735;28;20049;-53
2023/12/12 06:29:57;;;;;;;5.20;1.50;;;8.60;82.10;;;10.52;58.49;96907.06;5033534;28;20045;-54
2023/12/12 06:32:25;;;;;;;2.93;1.60;;;8.70;82.00;;;10.53;58.00;96923.88;5033196;28;20049;-51
2023/12/12 06:34:53;;;;;;;5.07;1.93;;;8.70;81.70;;;10.57;58.15;96917.19;5033373;28;20041;-50
2023/12/12 06:37:20;;;;;;;3.97;1.70;;;8.80;81.40;;;10.59;58.02;96902.69;5030969;28;20057;-51
2023/12/12 06:39:48;;;;;;;5.47;1.60;;;8.80;80.80;;;10.63;58.31;96898.66;5033326;28;20060;-52
2023/12/12 06:42:16;;;;;;;4.10;1.60;;;8.90;80.70;;;10.67;58.17;96895.66;5033029;28;20046;-52
2023/12/12 06:44:43;;;;;;;2.03;1.30;;;8.90;80.50;;;10.66;58.19;96894.81;5033345;28;20038;-51
2023/12/12 06:47:11;;;;;;;2.63;1.60;;;8.90;80.10;;;10.68;58.09;96890.13;5032774;28;20097;-55
2023/12/12 06:49:38;;;;;;;2.80;1.30;;;9.00;80.00;;;10.70;57.88;96890.81;5033321;28;20049;-52
2023/12/12 06:52:06;;;;;;;1.80;1.20;;;8.90;79.90;;;10.70;58.03;96881.97;5033044;28;20145;-50
2023/12/12 06:54:34;;;;;;;3.67;1.40;;;8.90;80.10;;;10.70;58.11;96873.97;5032688;28;20417;-53
2023/12/12 06:57:01;;;;;;;2.03;1.30;;;8.90;80.10;;;10.71;58.23;96883.63;5032553;28;20050;-51
2023/12/12 06:59:29;;;;;;;1.60;1.37;;;8.90;80.10;;;10.69;58.20;96889.13;5033014;28;20541;-50
2023/12/12 07:01:57;;;;;;;2.60;1.63;;;8.90;80.30;;;10.71;57.76;96883.63;5032801;28;20045;-53
2023/12/12 07:04:24;;;;;;;3.80;1.40;;;8.90;80.20;;;10.67;58.02;96879.69;5032901;28;20045;-53
2023/12/12 07:06:52;;;;;;;3.40;2.83;;;8.90;80.30;;;10.70;58.01;96881.97;5032054;28;20037;-50
2023/12/12 07:09:20;;;;;;;1.80;1.13;;;9.00;80.80;;;10.74;57.80;96889.44;5032710;28;20049;-50
2023/12/12 07:11:48;;;;;;;2.93;1.60;;;9.00;80.40;;;10.74;58.25;96892.09;5032432;28;20041;-53
2023/12/12 07:14:16;;;;;;;2.20;1.20;;;9.00;80.80;;;10.73;58.45;96900.25;5032729;28;20041;-52
2023/12/12 07:16:43;;;;;;;3.70;1.43;;;8.90;81.10;;;10.73;58.07;96897.59;5031156;28;20052;-52
2023/12/12 07:19:11;;;;;;;2.00;1.30;;;8.90;81.50;;;10.72;58.63;96886.13;5024562;28;20500;-51
2023/12/12 07:21:41;;;;;;;2.47;1.43;;;8.90;81.80;;;10.73;58.52;96897.59;5028543;28;20045;-53
2023/12/12 07:24:10;;;;;;;2.73;1.43;;;8.90;82.20;;;10.73;58.40;96905.56;5032901;28;20052;-53
2023/12/12 07:26:38;;;;;;;2.40;1.40;;;8.80;82.60;;;10.72;58.24;96911.88;5032476;28;20524;-51
2023/12/12 07:29:05;;;;;;;4.77;1.60;;;8.80;82.60;;;10.73;58.89;96908.22;5032429;28;20408;-49
2023/12/12 07:31:33;;;;;;;2.50;1.60;;;8.90;82.70;;;10.76;58.44;96907.84;5031065;28;20037;-52
2023/12/12 07:34:01;;;;;;;2.33;1.50;;;8.90;82.80;;;10.77;59.01;96901.53;5032206;28;20046;-51
2023/12/12 07:36:28;;;;;;;2.40;1.30;;;8.90;83.00;;;10.77;59.25;96901.53;5031994;28;20041;-52
2023/12/12 07:39:00;;;;;;;2.47;1.40;;;9.00;83.00;;;10.76;58.93;96890.06;5032210;28;20049;-54
2023/12/12 07:41:27;;;;;;;3.97;1.50;;;9.00;83.30;;;10.81;59.35;96881.53;5032186;28;20048;-52
2023/12/12 07:43:55;;;;;;;1.83;1.30;;;9.10;83.30;;;10.87;59.21;96872.81;5031896;28;20052;-53
2023/12/12 07:46:23;;;;;;;6.63;1.93;;;9.20;82.90;;;10.94;59.14;96868.41;5032033;28;20045;-54
2023/12/12 07:48:51;;;;;;;3.07;1.70;;;9.30;82.50;;;10.98;58.87;96876.88;5031693;28;20052;-55
2023/12/12 07:51:19;;;;;;;3.53;1.50;;;9.40;83.10;;;11.02;59.10;96888.81;5030659;28;20037;-54
2023/12/12 07:53:47;;;;;;;2.63;1.80;;;9.40;82.00;;;11.06;59.19;96894.59;5032542;28;20056;-52
2023/12/12 07:56:16;;;;;;;9.07;2.97;;;9.50;81.90;;;11.09;58.68;96895.06;5031312;28;20041;-52
2023/12/12 07:58:44;;;;;;;3.00;2.00;;;9.50;82.00;;;11.10;59.22;96899.38;5032809;28;20053;-53
2023/12/12 08:01:12;;;;;;;3.70;2.23;;;9.50;81.80;;;11.12;58.89;96896.53;5032486;28;20720;-50
2023/12/12 08:03:39;;;;;;;2.40;1.53;;;9.50;81.90;;;11.15;58.95;96899.66;5031497;28;20037;-50
2023/12/12 08:06:08;;;;;;;4.13;1.50;;;9.50;82.30;;;11.14;58.96;96887.34;5032243;28;20108;-51
2023/12/12 08:08:36;;;;;;;3.40;1.50;;;9.40;83.00;;;11.16;59.26;96884.50;5032372;28;20037;-54
2023/12/12 08:11:04;;;;;;;2.37;1.20;;;9.40;84.10;;;11.20;59.19;96872.47;5032345;28;20397;-52
2023/12/12 08:13:32;;;;;;;3.33;2.10;;;9.50;85.00;;;11.25;59.60;96863.94;5032430;28;20045;-54
2023/12/12 08:16:00;;;;;;;5.13;2.30;;;9.60;84.40;;;11.27;59.26;96859.25;5032032;28;20041;-52
2023/12/12 08:18:27;;;;;;;3.90;2.47;;;9.60;84.30;;;11.28;59.37;96864.38;5032360;28;20385;-54
2023/12/12 08:20:55;;;;;;;3.63;1.90;;;9.70;84.00;;;11.31;59.21;96866.69;5031756;28;20040;-49
2023/12/12 08:23:23;;;;;;;2.77;1.97;;;9.70;83.50;;;11.33;59.63;96854.00;5029888;28;20037;-52
2023/12/12 08:25:50;;;;;;;5.57;2.47;;;9.70;83.60;;;11.36;59.75;96847.47;5029113;28;20064;-53
2023/12/12 08:28:18;;;;;;;3.10;2.20;;;9.70;83.80;;;11.37;59.58;96833.13;5022445;28;20429;-50
2023/12/12 08:30:46;;;;;;;6.53;2.57;;;9.70;83.60;;;11.38;59.59;96829.44;5030493;28;20048;-49
2023/12/12 08:33:13;;;;;;;4.97;2.27;;;9.80;83.70;;;11.36;59.74;96829.66;5031015;28;20053;-52
2023/12/12 08:35:41;;;;;;;2.63;1.87;;;9.80;83.40;;;11.39;59.86;96815.94;5031129;28;20044;-51
2023/12/12 08:38:09;;;;;;;4.87;2.67;;;9.80;83.40;;;11.43;59.83;96817.22;5030202;28;20049;-51
2023/12/12 08:40:36;;;;;;;2.40;1.90;;;9.90;82.80;;;11.42;59.79;96834.22;5028414;28;20052;-49
2023/12/12 08:43:04;;;;;;;3.40;2.20;;;9.90;82.70;;;11.37;59.59;96819.81;5030563;28;20041;-51
2023/12/12 08:45:32;;;;;;;2.90;2.10;;;9.90;82.60;;;11.37;59.88;96822.47;5031159;28;20040;-49
2023/12/12 08:48:00;;;;;;;3.87;2.00;;;10.00;82.60;;;11.39;59.76;96812.47;5030425;28;20029;-47
2023/12/12 08:50:28;;;;;;;5.00;2.47;;;10.00;82.80;;;11.43;59.57;96813.72;5030935;28;20042;-51
2023/12/12 08:52:55;;;;;;;3.20;2.13;;;10.00;82.80;;;11.41;59.72;96805.09;5031677;28;20204;-49
2023/12/12 08:55:23;;;;;;;3.33;2.60;;;10.00;82.70;;;11.39;59.75;96812.47;5030867;28;20417;-48
2023/12/12 08:57:50;;;;;;;4.77;3.43;;;10.00;82.80;;;11.38;59.65;96822.28;5030675;28;20044;-52
2023/12/12 09:00:18;;;;;;;4.93;2.50;;;10.00;82.90;;;11.42;60.16;96826.25;5030056;28;20440;-49
2023/12/12 09:02:46;;;;;;;3.77;2.57;;;10.00;82.90;;;11.49;60.27;96825.50;5031311;28;20042;-49
2023/12/12 09:05:14;;;;;;;3.50;2.30;;;10.00;83.10;;;11.53;59.91;96822.25;5030646;28;20041;-50
2023/12/12 09:07:42;;;;;;;4.47;2.23;;;10.10;83.00;;;11.55;59.64;96817.56;5030509;28;20042;-50
2023/12/12 09:10:10;;;;;;;3.30;2.30;;;10.10;82.90;;;11.58;59.94;96827.03;5028810;28;20042;-48
2023/12/12 09:12:37;;;;;;;3.53;1.97;;;10.10;83.00;;;11.60;60.02;96817.00;5031424;28;20053;-49
2023/12/12 09:15:06;;;;;;;6.03;1.97;;;10.00;83.20;;;11.60;59.63;96809.00;5030664;28;20429;-48
2023/12/12 09:17:33;;;;;;;5.30;2.20;;;10.10;83.00;;;11.58;59.93;96819.03;5030415;28;20075;-50
2023/12/12 09:20:02;;;;;;;2.93;2.10;;;10.10;82.90;;;11.57;60.01;96810.22;5030396;28;20038;-50
2023/12/12 09:22:30;;;;;;;3.03;2.10;;;10.10;83.00;;;11.59;60.03;96807.34;5030246;28;20056;-49
2023/12/12 09:24:58;;;;;;;3.57;1.90;;;10.00;83.00;;;11.64;60.04;96796.94;5030360;28;20052;-50
2023/12/12 09:27:25;;;;;;;3.03;1.80;;;10.10;83.10;;;11.66;59.77;96781.59;5029588;28;20045;-48
2023/12/12 09:29:53;;;;;;;3.90;2.07;;;10.10;83.00;;;11.69;59.48;96783.03;5030652;28;20105;-49
2023/12/12 09:32:22;;;;;;;2.80;2.00;;;10.10;83.10;;;11.70;59.59;96772.19;5030134;28;20053;-49
2023/12/12 09:34:50;;;;;;;3.43;2.30;;;10.10;83.10;;;11.72;59.38;96770.16;5030476;28;20057;-49
2023/12/12 09:37:22;;;;;;;3.07;2.57;;;10.10;83.00;;;11.75;59.71;96774.31;5030120;28;20049;-51
2023/12/12 09:39:50;;;;;;;3.77;1.97;;;10.10;82.60;;;11.75;59.39;96771.66;5030479;28;20041;-49
2023/12/12 09:42:22;;;;;;;4.73;2.00;;;10.20;82.10;;;11.75;59.34;96766.31;5030156;28;20049;-50
2023/12/12 09:45:03;;;;;;;4.03;2.10;;;10.20;81.70;;;11.75;59.45;96772.47;5030175;28;20520;-52
2023/12/12 09:47:32;;;;;;;3.70;1.83;;;10.30;81.90;;;11.76;59.73;96760.78;5021726;28;20223;-49
2023/12/12 09:50:01;;;;;;;4.70;2.30;;;10.20;82.50;;;11.76;59.48;96763.44;5027307;28;20053;-49
2023/12/12 09:52:32;;;;;;;2.80;1.60;;;10.20;82.80;;;11.77;59.74;96756.28;5029123;28;20417;-50
2023/12/12 09:55:00;;;;;;;5.25;2.92;;;10.20;82.70;;;11.79;59.87;96744.41;5029876;28;20042;-49
2023/12/12 09:57:28;;;;;;;6.27;2.40;;;10.20;82.80;;;11.78;59.64;96745.41;5027913;28;20048;-49
2023/12/12 09:59:58;;;;;;;2.63;1.73;;;10.20;83.40;;;11.79;59.95;96743.59;5029229;28;20057;-49
2023/12/12 10:02:36;;;;;;;2.40;1.80;;;10.20;83.60;;;11.78;59.56;96737.41;5028928;28;20038;-48
2023/12/12 10:05:05;;;;;;;3.23;2.20;;;10.20;84.20;;;11.78;59.63;96725.91;5028880;28;20049;-50
2023/12/12 10:07:34;;;;;;;3.47;1.90;;;10.10;84.10;;;11.77;59.60;96721.63;5028597;28;20516;-48
2023/12/12 10:10:05;;;;;;;2.87;1.90;;;10.10;84.30;;;11.77;60.20;96721.63;5029458;28;20045;-50
2023/12/12 10:12:33;;;;;;;2.73;1.97;;;10.10;84.90;;;11.74;60.29;96719.31;5033243;28;20049;-49
2023/12/12 10:15:01;;;;;;;3.20;1.90;;;10.00;85.60;;;11.74;60.40;96720.13;5024879;28;20042;-49
2023/12/12 10:17:38;;;;;;;2.70;1.77;;;10.00;86.20;;;11.74;60.43;96712.13;5026998;28;20497;-50
2023/12/12 10:20:07;;;;;;;3.10;1.97;;;10.00;86.80;;;11.73;60.62;96707.84;5024359;28;20041;-51
2023/12/12 10:22:34;;;;;;;3.37;2.03;;;10.00;87.30;;;11.74;60.76;96693.47;5029955;28;20056;-51
2023/12/12 10:25:10;;;;;;;2.43;1.80;;;10.00;87.30;;;11.75;60.48;96699.66;5033718;28;20496;-51
2023/12/12 10:27:43;;;;;;;3.37;1.77;;;10.00;87.50;;;11.75;60.77;96697.00;5026690;28;20416;-50
2023/12/12 10:30:13;;;;;;;5.17;2.10;;;10.00;87.40;;;11.70;60.91;96697.53;5032115;28;20049;-52